sensor_id;sensor_type;location;lat;lon;timestamp;P1;durP1;ratioP1;P2;durP2;ratioP2
26574;SDS011;67165;50.256;10.978;2023-05-07T00:01:28;20.75;;;16.17;;
26574;SDS011;67165;50.256;10.978;2023-05-07T00:03:53;20.38;;;16.10;;
26574;SDS011;67165;50.256;10.978;2023-05-07T00:06:19;22.10;;;16.73;;
26574;SDS011;67165;50.256;10.978;2023-05-07T00:08:45;23.58;;;17.63;;
26574;SDS011;67165;50.256;10.978;2023-05-07T00:11:11;20.13;;;16.40;;
26574;SDS011;67165;50.256;10.978;2023-05-07T00:13:36;22.00;;;17.60;;
26574;SDS011;67165;50.256;10.978;2023-05-07T00:16:02;23.85;;;18.27;;
26574;SDS011;67165;50.256;10.978;2023-05-07T00:18:28;22.25;;;17.13;;
26574;SDS011;67165;50.256;10.978;2023-05-07T00:20:54;25.15;;;18.70;;
26574;SDS011;67165;50.256;10.978;2023-05-07T00:23:20;26.67;;;18.48;;
26574;SDS011;67165;50.256;10.978;2023-05-07T00:25:45;24.92;;;18.60;;
26574;SDS011;67165;50.256;10.978;2023-05-07T00:28:11;25.92;;;18.55;;
26574;SDS011;67165;50.256;10.978;2023-05-07T00:30:36;22.85;;;18.45;;
26574;SDS011;67165;50.256;10.978;2023-05-07T00:33:02;22.58;;;19.17;;
26574;SDS011;67165;50.256;10.978;2023-05-07T00:35:28;27.13;;;19.40;;
26574;SDS011;67165;50.256;10.978;2023-05-07T00:37:54;26.63;;;19.58;;
26574;SDS011;67165;50.256;10.978;2023-05-07T00:40:20;25.75;;;19.77;;
26574;SDS011;67165;50.256;10.978;2023-05-07T00:42:46;27.08;;;18.88;;
26574;SDS011;67165;50.256;10.978;2023-05-07T00:45:12;26.02;;;19.42;;
26574;SDS011;67165;50.256;10.978;2023-05-07T00:47:39;28.95;;;19.75;;
26574;SDS011;67165;50.256;10.978;2023-05-07T00:50:05;27.38;;;19.45;;
26574;SDS011;67165;50.256;10.978;2023-05-07T00:52:32;26.58;;;19.33;;
26574;SDS011;67165;50.256;10.978;2023-05-07T00:54:57;25.10;;;18.73;;
26574;SDS011;67165;50.256;10.978;2023-05-07T00:57:28;26.88;;;19.10;;
26574;SDS011;67165;50.256;10.978;2023-05-07T00:59:53;25.50;;;20.13;;
26574;SDS011;67165;50.256;10.978;2023-05-07T01:02:19;24.63;;;19.38;;
26574;SDS011;67165;50.256;10.978;2023-05-07T01:04:45;28.23;;;20.27;;
26574;SDS011;67165;50.256;10.978;2023-05-07T01:07:11;26.08;;;20.10;;
26574;SDS011;67165;50.256;10.978;2023-05-07T01:09:36;24.90;;;19.85;;
26574;SDS011;67165;50.256;10.978;2023-05-07T01:12:02;26.13;;;19.50;;
26574;SDS011;67165;50.256;10.978;2023-05-07T01:14:29;28.55;;;20.45;;
26574;SDS011;67165;50.256;10.978;2023-05-07T01:16:55;29.48;;;19.90;;
26574;SDS011;67165;50.256;10.978;2023-05-07T01:19:21;26.38;;;19.77;;
26574;SDS011;67165;50.256;10.978;2023-05-07T01:21:47;25.15;;;20.40;;
26574;SDS011;67165;50.256;10.978;2023-05-07T01:24:14;28.70;;;21.35;;
26574;SDS011;67165;50.256;10.978;2023-05-07T01:26:40;30.95;;;21.85;;
26574;SDS011;67165;50.256;10.978;2023-05-07T01:29:07;27.40;;;20.55;;
26574;SDS011;67165;50.256;10.978;2023-05-07T01:31:32;28.10;;;20.85;;
26574;SDS011;67165;50.256;10.978;2023-05-07T01:33:59;31.13;;;21.98;;
26574;SDS011;67165;50.256;10.978;2023-05-07T01:36:26;30.17;;;22.55;;
26574;SDS011;67165;50.256;10.978;2023-05-07T01:38:54;29.73;;;22.48;;
26574;SDS011;67165;50.256;10.978;2023-05-07T01:41:23;38.00;;;23.58;;
26574;SDS011;67165;50.256;10.978;2023-05-07T01:43:49;33.92;;;24.30;;
26574;SDS011;67165;50.256;10.978;2023-05-07T01:46:17;32.40;;;23.23;;
26574;SDS011;67165;50.256;10.978;2023-05-07T01:48:44;31.92;;;23.75;;
26574;SDS011;67165;50.256;10.978;2023-05-07T01:51:11;30.83;;;22.80;;
26574;SDS011;67165;50.256;10.978;2023-05-07T01:53:40;30.13;;;22.83;;
26574;SDS011;67165;50.256;10.978;2023-05-07T01:56:07;28.67;;;21.83;;
26574;SDS011;67165;50.256;10.978;2023-05-07T01:58:32;29.92;;;22.23;;
26574;SDS011;67165;50.256;10.978;2023-05-07T02:00:58;30.00;;;22.45;;
26574;SDS011;67165;50.256;10.978;2023-05-07T02:03:24;32.40;;;21.73;;
26574;SDS011;67165;50.256;10.978;2023-05-07T02:05:50;31.45;;;22.67;;
26574;SDS011;67165;50.256;10.978;2023-05-07T02:08:16;30.85;;;22.33;;
26574;SDS011;67165;50.256;10.978;2023-05-07T02:10:42;32.17;;;23.25;;
26574;SDS011;67165;50.256;10.978;2023-05-07T02:13:07;30.67;;;22.17;;
26574;SDS011;67165;50.256;10.978;2023-05-07T02:15:33;28.13;;;20.83;;
26574;SDS011;67165;50.256;10.978;2023-05-07T02:18:02;30.00;;;20.30;;
26574;SDS011;67165;50.256;10.978;2023-05-07T02:20:29;28.25;;;20.67;;
26574;SDS011;67165;50.256;10.978;2023-05-07T02:22:55;29.20;;;21.13;;
26574;SDS011;67165;50.256;10.978;2023-05-07T02:25:21;28.67;;;21.15;;
26574;SDS011;67165;50.256;10.978;2023-05-07T02:27:46;28.13;;;21.10;;
26574;SDS011;67165;50.256;10.978;2023-05-07T02:30:13;28.38;;;20.33;;
26574;SDS011;67165;50.256;10.978;2023-05-07T02:32:39;30.67;;;21.38;;
26574;SDS011;67165;50.256;10.978;2023-05-07T02:35:05;28.08;;;20.33;;
26574;SDS011;67165;50.256;10.978;2023-05-07T02:37:30;29.45;;;21.00;;
26574;SDS011;67165;50.256;10.978;2023-05-07T02:39:56;26.70;;;19.25;;
26574;SDS011;67165;50.256;10.978;2023-05-07T02:42:22;26.85;;;20.08;;
26574;SDS011;67165;50.256;10.978;2023-05-07T02:44:47;28.00;;;19.80;;
26574;SDS011;67165;50.256;10.978;2023-05-07T02:47:14;27.98;;;19.42;;
26574;SDS011;67165;50.256;10.978;2023-05-07T02:49:40;26.65;;;19.48;;
26574;SDS011;67165;50.256;10.978;2023-05-07T02:52:05;26.30;;;18.55;;
26574;SDS011;67165;50.256;10.978;2023-05-07T02:54:31;24.90;;;18.05;;
26574;SDS011;67165;50.256;10.978;2023-05-07T02:56:57;26.98;;;18.75;;
26574;SDS011;67165;50.256;10.978;2023-05-07T02:59:23;23.73;;;17.80;;
26574;SDS011;67165;50.256;10.978;2023-05-07T03:01:50;21.98;;;16.85;;
26574;SDS011;67165;50.256;10.978;2023-05-07T03:04:15;24.60;;;17.85;;
26574;SDS011;67165;50.256;10.978;2023-05-07T03:06:42;24.33;;;17.55;;
26574;SDS011;67165;50.256;10.978;2023-05-07T03:09:07;22.83;;;17.73;;
26574;SDS011;67165;50.256;10.978;2023-05-07T03:11:33;27.33;;;15.85;;
26574;SDS011;67165;50.256;10.978;2023-05-07T03:14:00;23.05;;;16.30;;
26574;SDS011;67165;50.256;10.978;2023-05-07T03:16:26;24.40;;;16.75;;
26574;SDS011;67165;50.256;10.978;2023-05-07T03:18:52;23.45;;;16.83;;
26574;SDS011;67165;50.256;10.978;2023-05-07T03:21:17;23.00;;;16.48;;
26574;SDS011;67165;50.256;10.978;2023-05-07T03:23:43;24.35;;;16.33;;
26574;SDS011;67165;50.256;10.978;2023-05-07T03:26:09;21.00;;;15.68;;
26574;SDS011;67165;50.256;10.978;2023-05-07T03:28:34;23.58;;;17.20;;
26574;SDS011;67165;50.256;10.978;2023-05-07T03:31:00;22.60;;;16.25;;
26574;SDS011;67165;50.256;10.978;2023-05-07T03:33:26;26.08;;;16.70;;
26574;SDS011;67165;50.256;10.978;2023-05-07T03:35:52;23.83;;;16.10;;
26574;SDS011;67165;50.256;10.978;2023-05-07T03:38:18;23.30;;;17.20;;
26574;SDS011;67165;50.256;10.978;2023-05-07T03:40:43;24.27;;;15.13;;
26574;SDS011;67165;50.256;10.978;2023-05-07T03:43:09;21.92;;;15.85;;
26574;SDS011;67165;50.256;10.978;2023-05-07T03:45:35;22.73;;;16.40;;
26574;SDS011;67165;50.256;10.978;2023-05-07T03:48:01;24.85;;;16.35;;
26574;SDS011;67165;50.256;10.978;2023-05-07T03:50:26;21.85;;;15.98;;
26574;SDS011;67165;50.256;10.978;2023-05-07T03:52:52;24.20;;;16.48;;
26574;SDS011;67165;50.256;10.978;2023-05-07T03:55:17;22.20;;;15.68;;
26574;SDS011;67165;50.256;10.978;2023-05-07T03:57:43;23.20;;;16.25;;
26574;SDS011;67165;50.256;10.978;2023-05-07T04:00:09;21.48;;;16.42;;
26574;SDS011;67165;50.256;10.978;2023-05-07T04:02:35;20.42;;;15.82;;
26574;SDS011;67165;50.256;10.978;2023-05-07T04:05:01;22.80;;;16.42;;
26574;SDS011;67165;50.256;10.978;2023-05-07T04:07:26;22.15;;;15.25;;
26574;SDS011;67165;50.256;10.978;2023-05-07T04:09:52;20.15;;;15.52;;
26574;SDS011;67165;50.256;10.978;2023-05-07T04:12:17;21.55;;;16.27;;
26574;SDS011;67165;50.256;10.978;2023-05-07T04:14:43;21.63;;;15.90;;
26574;SDS011;67165;50.256;10.978;2023-05-07T04:17:09;23.13;;;16.50;;
26574;SDS011;67165;50.256;10.978;2023-05-07T04:19:35;22.67;;;16.17;;
26574;SDS011;67165;50.256;10.978;2023-05-07T04:22:01;24.98;;;17.02;;
26574;SDS011;67165;50.256;10.978;2023-05-07T04:24:27;26.30;;;16.92;;
26574;SDS011;67165;50.256;10.978;2023-05-07T04:26:52;23.05;;;16.67;;
26574;SDS011;67165;50.256;10.978;2023-05-07T04:29:20;22.63;;;16.05;;
26574;SDS011;67165;50.256;10.978;2023-05-07T04:31:46;23.92;;;17.38;;
26574;SDS011;67165;50.256;10.978;2023-05-07T04:34:11;20.30;;;15.93;;
26574;SDS011;67165;50.256;10.978;2023-05-07T04:36:38;25.75;;;17.30;;
26574;SDS011;67165;50.256;10.978;2023-05-07T04:39:03;24.33;;;16.83;;
26574;SDS011;67165;50.256;10.978;2023-05-07T04:41:29;24.55;;;18.58;;
26574;SDS011;67165;50.256;10.978;2023-05-07T04:43:55;23.98;;;16.63;;
26574;SDS011;67165;50.256;10.978;2023-05-07T04:46:21;23.90;;;17.48;;
26574;SDS011;67165;50.256;10.978;2023-05-07T04:48:48;26.48;;;17.10;;
26574;SDS011;67165;50.256;10.978;2023-05-07T04:51:14;23.77;;;17.90;;
26574;SDS011;67165;50.256;10.978;2023-05-07T04:53:40;23.00;;;16.98;;
26574;SDS011;67165;50.256;10.978;2023-05-07T04:56:06;27.20;;;18.27;;
26574;SDS011;67165;50.256;10.978;2023-05-07T04:58:31;27.33;;;17.80;;
26574;SDS011;67165;50.256;10.978;2023-05-07T05:00:57;26.55;;;17.63;;
26574;SDS011;67165;50.256;10.978;2023-05-07T05:03:23;25.80;;;17.98;;
26574;SDS011;67165;50.256;10.978;2023-05-07T05:05:50;23.85;;;17.77;;
26574;SDS011;67165;50.256;10.978;2023-05-07T05:08:17;25.25;;;17.08;;
26574;SDS011;67165;50.256;10.978;2023-05-07T05:10:42;24.73;;;17.45;;
26574;SDS011;67165;50.256;10.978;2023-05-07T05:13:08;25.52;;;17.50;;
26574;SDS011;67165;50.256;10.978;2023-05-07T05:15:34;21.13;;;16.65;;
26574;SDS011;67165;50.256;10.978;2023-05-07T05:18:00;22.15;;;16.92;;
26574;SDS011;67165;50.256;10.978;2023-05-07T05:20:26;25.98;;;17.40;;
26574;SDS011;67165;50.256;10.978;2023-05-07T05:22:52;23.08;;;16.45;;
26574;SDS011;67165;50.256;10.978;2023-05-07T05:25:17;26.20;;;17.95;;
26574;SDS011;67165;50.256;10.978;2023-05-07T05:27:43;22.52;;;15.73;;
26574;SDS011;67165;50.256;10.978;2023-05-07T05:30:09;21.35;;;15.48;;
26574;SDS011;67165;50.256;10.978;2023-05-07T05:32:35;25.52;;;16.95;;
26574;SDS011;67165;50.256;10.978;2023-05-07T05:35:01;23.10;;;16.50;;
26574;SDS011;67165;50.256;10.978;2023-05-07T05:37:26;22.23;;;16.20;;
26574;SDS011;67165;50.256;10.978;2023-05-07T05:39:52;22.73;;;16.60;;
26574;SDS011;67165;50.256;10.978;2023-05-07T05:42:19;23.30;;;16.38;;
26574;SDS011;67165;50.256;10.978;2023-05-07T05:44:45;22.67;;;16.98;;
26574;SDS011;67165;50.256;10.978;2023-05-07T05:47:11;22.67;;;16.08;;
26574;SDS011;67165;50.256;10.978;2023-05-07T05:49:36;22.30;;;16.45;;
26574;SDS011;67165;50.256;10.978;2023-05-07T05:52:02;24.60;;;16.45;;
26574;SDS011;67165;50.256;10.978;2023-05-07T05:54:28;22.05;;;15.98;;
26574;SDS011;67165;50.256;10.978;2023-05-07T05:56:53;26.25;;;15.25;;
26574;SDS011;67165;50.256;10.978;2023-05-07T05:59:19;21.55;;;15.50;;
26574;SDS011;67165;50.256;10.978;2023-05-07T06:01:45;23.65;;;16.92;;
26574;SDS011;67165;50.256;10.978;2023-05-07T06:04:10;22.92;;;15.52;;
26574;SDS011;67165;50.256;10.978;2023-05-07T06:06:36;21.83;;;15.60;;
26574;SDS011;67165;50.256;10.978;2023-05-07T06:09:02;21.90;;;14.93;;
26574;SDS011;67165;50.256;10.978;2023-05-07T06:11:28;23.20;;;15.02;;
26574;SDS011;67165;50.256;10.978;2023-05-07T06:13:53;22.75;;;15.70;;
26574;SDS011;67165;50.256;10.978;2023-05-07T06:16:19;22.50;;;15.10;;
26574;SDS011;67165;50.256;10.978;2023-05-07T06:18:45;20.23;;;14.98;;
26574;SDS011;67165;50.256;10.978;2023-05-07T06:21:11;19.63;;;14.35;;
26574;SDS011;67165;50.256;10.978;2023-05-07T06:23:38;21.10;;;14.35;;
26574;SDS011;67165;50.256;10.978;2023-05-07T06:26:05;21.30;;;15.35;;
26574;SDS011;67165;50.256;10.978;2023-05-07T06:28:31;20.55;;;14.80;;
26574;SDS011;67165;50.256;10.978;2023-05-07T06:31:16;21.42;;;14.77;;
26574;SDS011;67165;50.256;10.978;2023-05-07T06:33:48;19.25;;;14.20;;
26574;SDS011;67165;50.256;10.978;2023-05-07T06:36:14;20.88;;;14.07;;
26574;SDS011;67165;50.256;10.978;2023-05-07T06:38:40;19.48;;;13.80;;
26574;SDS011;67165;50.256;10.978;2023-05-07T06:41:06;21.70;;;14.52;;
26574;SDS011;67165;50.256;10.978;2023-05-07T06:43:32;19.90;;;14.75;;
26574;SDS011;67165;50.256;10.978;2023-05-07T06:45:58;20.15;;;14.80;;
26574;SDS011;67165;50.256;10.978;2023-05-07T06:48:23;21.17;;;14.98;;
26574;SDS011;67165;50.256;10.978;2023-05-07T06:50:49;21.58;;;14.77;;
26574;SDS011;67165;50.256;10.978;2023-05-07T06:53:15;19.20;;;14.10;;
26574;SDS011;67165;50.256;10.978;2023-05-07T06:55:41;19.40;;;14.63;;
26574;SDS011;67165;50.256;10.978;2023-05-07T06:58:06;20.50;;;13.93;;
26574;SDS011;67165;50.256;10.978;2023-05-07T07:00:32;20.25;;;14.43;;
26574;SDS011;67165;50.256;10.978;2023-05-07T07:02:58;19.05;;;13.80;;
26574;SDS011;67165;50.256;10.978;2023-05-07T07:05:25;19.25;;;14.40;;
26574;SDS011;67165;50.256;10.978;2023-05-07T07:07:51;21.13;;;14.63;;
26574;SDS011;67165;50.256;10.978;2023-05-07T07:10:19;21.85;;;15.25;;
26574;SDS011;67165;50.256;10.978;2023-05-07T07:12:45;18.75;;;13.73;;
26574;SDS011;67165;50.256;10.978;2023-05-07T07:15:11;19.38;;;14.18;;
26574;SDS011;67165;50.256;10.978;2023-05-07T07:17:38;20.13;;;14.25;;
26574;SDS011;67165;50.256;10.978;2023-05-07T07:20:03;23.02;;;14.80;;
26574;SDS011;67165;50.256;10.978;2023-05-07T07:22:30;20.02;;;14.13;;
26574;SDS011;67165;50.256;10.978;2023-05-07T07:24:55;19.90;;;13.90;;
26574;SDS011;67165;50.256;10.978;2023-05-07T07:27:21;16.52;;;12.65;;
26574;SDS011;67165;50.256;10.978;2023-05-07T07:29:47;18.73;;;14.00;;
26574;SDS011;67165;50.256;10.978;2023-05-07T07:32:12;19.10;;;12.82;;
26574;SDS011;67165;50.256;10.978;2023-05-07T07:34:38;16.88;;;12.05;;
26574;SDS011;67165;50.256;10.978;2023-05-07T07:37:04;18.40;;;12.57;;
26574;SDS011;67165;50.256;10.978;2023-05-07T07:39:30;18.70;;;12.77;;
26574;SDS011;67165;50.256;10.978;2023-05-07T07:41:57;17.52;;;12.20;;
26574;SDS011;67165;50.256;10.978;2023-05-07T07:44:22;15.15;;;11.52;;
26574;SDS011;67165;50.256;10.978;2023-05-07T07:46:48;17.50;;;12.40;;
26574;SDS011;67165;50.256;10.978;2023-05-07T07:49:14;16.52;;;11.57;;
26574;SDS011;67165;50.256;10.978;2023-05-07T07:51:40;15.65;;;11.73;;
26574;SDS011;67165;50.256;10.978;2023-05-07T07:54:05;14.90;;;10.73;;
26574;SDS011;67165;50.256;10.978;2023-05-07T07:56:34;16.65;;;11.23;;
26574;SDS011;67165;50.256;10.978;2023-05-07T07:59:00;18.20;;;10.63;;
26574;SDS011;67165;50.256;10.978;2023-05-07T08:01:26;15.30;;;11.60;;
26574;SDS011;67165;50.256;10.978;2023-05-07T08:03:51;15.25;;;11.13;;
26574;SDS011;67165;50.256;10.978;2023-05-07T08:06:17;13.90;;;10.15;;
26574;SDS011;67165;50.256;10.978;2023-05-07T08:08:43;13.80;;;10.63;;
26574;SDS011;67165;50.256;10.978;2023-05-07T08:11:09;14.13;;;10.20;;
26574;SDS011;67165;50.256;10.978;2023-05-07T08:13:36;14.40;;;10.10;;
26574;SDS011;67165;50.256;10.978;2023-05-07T08:16:03;13.65;;;10.43;;
26574;SDS011;67165;50.256;10.978;2023-05-07T08:18:29;16.17;;;9.95;;
26574;SDS011;67165;50.256;10.978;2023-05-07T08:20:55;13.73;;;10.13;;
26574;SDS011;67165;50.256;10.978;2023-05-07T08:23:20;14.05;;;10.07;;
26574;SDS011;67165;50.256;10.978;2023-05-07T08:25:47;11.02;;;8.50;;
26574;SDS011;67165;50.256;10.978;2023-05-07T08:28:13;14.18;;;9.52;;
26574;SDS011;67165;50.256;10.978;2023-05-07T08:30:38;14.30;;;9.98;;
26574;SDS011;67165;50.256;10.978;2023-05-07T08:33:04;12.80;;;9.13;;
26574;SDS011;67165;50.256;10.978;2023-05-07T08:35:30;10.68;;;8.63;;
26574;SDS011;67165;50.256;10.978;2023-05-07T08:37:55;12.25;;;8.75;;
26574;SDS011;67165;50.256;10.978;2023-05-07T08:40:23;12.27;;;8.68;;
26574;SDS011;67165;50.256;10.978;2023-05-07T08:42:51;11.40;;;8.55;;
26574;SDS011;67165;50.256;10.978;2023-05-07T08:45:18;12.50;;;7.90;;
26574;SDS011;67165;50.256;10.978;2023-05-07T08:47:46;11.95;;;7.95;;
26574;SDS011;67165;50.256;10.978;2023-05-07T08:50:15;10.57;;;7.88;;
26574;SDS011;67165;50.256;10.978;2023-05-07T08:52:41;9.13;;;7.47;;
26574;SDS011;67165;50.256;10.978;2023-05-07T08:55:07;10.55;;;7.60;;
26574;SDS011;67165;50.256;10.978;2023-05-07T08:57:33;11.02;;;7.20;;
26574;SDS011;67165;50.256;10.978;2023-05-07T09:00:00;9.77;;;6.82;;
26574;SDS011;67165;50.256;10.978;2023-05-07T09:02:26;7.45;;;6.28;;
26574;SDS011;67165;50.256;10.978;2023-05-07T09:04:52;9.18;;;6.65;;
26574;SDS011;67165;50.256;10.978;2023-05-07T09:07:19;7.40;;;5.93;;
26574;SDS011;67165;50.256;10.978;2023-05-07T09:09:45;8.10;;;6.25;;
26574;SDS011;67165;50.256;10.978;2023-05-07T09:12:11;9.45;;;6.05;;
26574;SDS011;67165;50.256;10.978;2023-05-07T09:14:37;7.22;;;5.60;;
26574;SDS011;67165;50.256;10.978;2023-05-07T09:17:04;7.97;;;6.10;;
26574;SDS011;67165;50.256;10.978;2023-05-07T09:19:30;7.90;;;6.07;;
26574;SDS011;67165;50.256;10.978;2023-05-07T09:21:59;7.53;;;5.43;;
26574;SDS011;67165;50.256;10.978;2023-05-07T09:24:26;7.78;;;5.45;;
26574;SDS011;67165;50.256;10.978;2023-05-07T09:26:54;6.40;;;4.90;;
26574;SDS011;67165;50.256;10.978;2023-05-07T09:29:22;7.28;;;5.55;;
26574;SDS011;67165;50.256;10.978;2023-05-07T09:31:48;6.57;;;4.95;;
26574;SDS011;67165;50.256;10.978;2023-05-07T09:34:13;6.25;;;4.90;;
26574;SDS011;67165;50.256;10.978;2023-05-07T09:36:39;7.57;;;5.18;;
26574;SDS011;67165;50.256;10.978;2023-05-07T09:39:05;11.63;;;5.28;;
26574;SDS011;67165;50.256;10.978;2023-05-07T09:41:30;6.45;;;4.80;;
26574;SDS011;67165;50.256;10.978;2023-05-07T09:43:57;6.05;;;4.90;;
26574;SDS011;67165;50.256;10.978;2023-05-07T09:46:32;7.10;;;5.00;;
26574;SDS011;67165;50.256;10.978;2023-05-07T09:49:01;6.60;;;4.88;;
26574;SDS011;67165;50.256;10.978;2023-05-07T09:51:34;6.78;;;5.43;;
26574;SDS011;67165;50.256;10.978;2023-05-07T09:54:08;6.43;;;5.15;;
26574;SDS011;67165;50.256;10.978;2023-05-07T09:56:35;6.80;;;4.95;;
26574;SDS011;67165;50.256;10.978;2023-05-07T09:59:03;6.32;;;5.03;;
26574;SDS011;67165;50.256;10.978;2023-05-07T10:01:31;6.93;;;4.90;;
26574;SDS011;67165;50.256;10.978;2023-05-07T10:03:58;7.13;;;4.65;;
26574;SDS011;67165;50.256;10.978;2023-05-07T10:06:24;6.03;;;4.72;;
26574;SDS011;67165;50.256;10.978;2023-05-07T10:08:51;6.38;;;5.47;;
26574;SDS011;67165;50.256;10.978;2023-05-07T10:11:18;8.73;;;5.28;;
26574;SDS011;67165;50.256;10.978;2023-05-07T10:13:44;6.43;;;4.97;;
26574;SDS011;67165;50.256;10.978;2023-05-07T10:16:12;8.07;;;5.75;;
26574;SDS011;67165;50.256;10.978;2023-05-07T10:18:40;7.65;;;5.95;;
26574;SDS011;67165;50.256;10.978;2023-05-07T10:21:19;7.55;;;5.80;;
26574;SDS011;67165;50.256;10.978;2023-05-07T10:26:38;8.07;;;6.45;;
26574;SDS011;67165;50.256;10.978;2023-05-07T10:29:12;8.60;;;5.95;;
26574;SDS011;67165;50.256;10.978;2023-05-07T10:31:58;7.47;;;5.75;;
26574;SDS011;67165;50.256;10.978;2023-05-07T10:34:40;7.90;;;5.53;;
26574;SDS011;67165;50.256;10.978;2023-05-07T10:37:09;8.38;;;5.20;;
26574;SDS011;67165;50.256;10.978;2023-05-07T10:39:35;10.10;;;5.25;;
26574;SDS011;67165;50.256;10.978;2023-05-07T10:42:09;7.18;;;5.22;;
26574;SDS011;67165;50.256;10.978;2023-05-07T10:44:38;6.53;;;4.68;;
26574;SDS011;67165;50.256;10.978;2023-05-07T10:52:18;5.20;;;4.32;;
26574;SDS011;67165;50.256;10.978;2023-05-07T10:54:48;5.60;;;4.50;;
26574;SDS011;67165;50.256;10.978;2023-05-07T10:57:43;5.25;;;4.18;;
26574;SDS011;67165;50.256;10.978;2023-05-07T11:03:07;6.07;;;4.25;;
26574;SDS011;67165;50.256;10.978;2023-05-07T11:05:33;7.47;;;4.80;;
26574;SDS011;67165;50.256;10.978;2023-05-07T11:08:00;4.65;;;4.07;;
26574;SDS011;67165;50.256;10.978;2023-05-07T11:10:48;7.53;;;3.90;;
26574;SDS011;67165;50.256;10.978;2023-05-07T11:13:14;7.47;;;4.13;;
26574;SDS011;67165;50.256;10.978;2023-05-07T11:15:41;5.97;;;4.70;;
26574;SDS011;67165;50.256;10.978;2023-05-07T11:18:09;7.50;;;3.92;;
26574;SDS011;67165;50.256;10.978;2023-05-07T11:20:49;7.47;;;4.53;;
26574;SDS011;67165;50.256;10.978;2023-05-07T11:28:30;6.22;;;4.00;;
26574;SDS011;67165;50.256;10.978;2023-05-07T11:30:56;6.95;;;3.83;;
26574;SDS011;67165;50.256;10.978;2023-05-07T11:33:23;4.35;;;3.58;;
26574;SDS011;67165;50.256;10.978;2023-05-07T11:35:54;5.60;;;3.45;;
26574;SDS011;67165;50.256;10.978;2023-05-07T11:38:20;4.97;;;3.50;;
26574;SDS011;67165;50.256;10.978;2023-05-07T11:40:52;4.75;;;3.25;;
26574;SDS011;67165;50.256;10.978;2023-05-07T11:43:20;7.05;;;4.03;;
26574;SDS011;67165;50.256;10.978;2023-05-07T11:45:46;6.65;;;3.90;;
26574;SDS011;67165;50.256;10.978;2023-05-07T11:48:13;4.60;;;3.58;;
26574;SDS011;67165;50.256;10.978;2023-05-07T11:53:18;4.93;;;3.38;;
26574;SDS011;67165;50.256;10.978;2023-05-07T11:55:45;4.75;;;3.65;;
26574;SDS011;67165;50.256;10.978;2023-05-07T11:58:12;5.03;;;3.67;;
26574;SDS011;67165;50.256;10.978;2023-05-07T12:00:48;5.88;;;3.40;;
26574;SDS011;67165;50.256;10.978;2023-05-07T12:03:15;6.53;;;3.80;;
26574;SDS011;67165;50.256;10.978;2023-05-07T12:05:40;5.15;;;3.20;;
26574;SDS011;67165;50.256;10.978;2023-05-07T12:08:07;6.93;;;3.72;;
26574;SDS011;67165;50.256;10.978;2023-05-07T12:10:33;4.97;;;3.67;;
26574;SDS011;67165;50.256;10.978;2023-05-07T12:12:58;4.03;;;3.42;;
26574;SDS011;67165;50.256;10.978;2023-05-07T12:15:24;5.35;;;3.13;;
26574;SDS011;67165;50.256;10.978;2023-05-07T12:17:50;2.97;;;2.67;;
26574;SDS011;67165;50.256;10.978;2023-05-07T12:20:17;4.47;;;3.30;;
26574;SDS011;67165;50.256;10.978;2023-05-07T12:22:43;5.55;;;3.67;;
26574;SDS011;67165;50.256;10.978;2023-05-07T12:25:09;6.00;;;3.70;;
26574;SDS011;67165;50.256;10.978;2023-05-07T12:27:36;6.15;;;4.00;;
26574;SDS011;67165;50.256;10.978;2023-05-07T12:30:04;4.97;;;3.40;;
26574;SDS011;67165;50.256;10.978;2023-05-07T12:32:30;4.25;;;3.60;;
26574;SDS011;67165;50.256;10.978;2023-05-07T12:35:01;3.25;;;2.90;;
26574;SDS011;67165;50.256;10.978;2023-05-07T12:37:26;4.43;;;3.20;;
26574;SDS011;67165;50.256;10.978;2023-05-07T12:40:08;5.60;;;3.30;;
26574;SDS011;67165;50.256;10.978;2023-05-07T12:42:36;5.07;;;4.07;;
26574;SDS011;67165;50.256;10.978;2023-05-07T12:45:09;3.67;;;3.10;;
26574;SDS011;67165;50.256;10.978;2023-05-07T12:47:35;4.22;;;3.30;;
26574;SDS011;67165;50.256;10.978;2023-05-07T12:50:01;4.40;;;3.25;;
26574;SDS011;67165;50.256;10.978;2023-05-07T12:52:27;10.07;;;3.10;;
26574;SDS011;67165;50.256;10.978;2023-05-07T12:54:53;4.85;;;3.50;;
26574;SDS011;67165;50.256;10.978;2023-05-07T12:57:19;5.22;;;3.50;;
26574;SDS011;67165;50.256;10.978;2023-05-07T12:59:45;4.00;;;3.50;;
26574;SDS011;67165;50.256;10.978;2023-05-07T13:02:11;4.78;;;3.42;;
26574;SDS011;67165;50.256;10.978;2023-05-07T13:04:37;5.00;;;3.58;;
26574;SDS011;67165;50.256;10.978;2023-05-07T13:07:03;7.13;;;3.00;;
26574;SDS011;67165;50.256;10.978;2023-05-07T13:09:29;5.30;;;3.03;;
26574;SDS011;67165;50.256;10.978;2023-05-07T13:11:55;6.40;;;3.10;;
26574;SDS011;67165;50.256;10.978;2023-05-07T13:14:21;3.75;;;3.05;;
26574;SDS011;67165;50.256;10.978;2023-05-07T13:16:47;4.25;;;3.03;;
26574;SDS011;67165;50.256;10.978;2023-05-07T13:19:13;3.22;;;2.92;;
26574;SDS011;67165;50.256;10.978;2023-05-07T13:21:39;5.63;;;2.97;;
26574;SDS011;67165;50.256;10.978;2023-05-07T13:24:05;4.90;;;2.85;;
26574;SDS011;67165;50.256;10.978;2023-05-07T13:26:33;4.57;;;3.00;;
26574;SDS011;67165;50.256;10.978;2023-05-07T13:28:58;4.20;;;2.60;;
26574;SDS011;67165;50.256;10.978;2023-05-07T13:31:24;3.00;;;2.70;;
26574;SDS011;67165;50.256;10.978;2023-05-07T13:33:50;3.40;;;3.10;;
26574;SDS011;67165;50.256;10.978;2023-05-07T13:36:17;6.28;;;4.05;;
26574;SDS011;67165;50.256;10.978;2023-05-07T13:38:43;5.55;;;4.20;;
26574;SDS011;67165;50.256;10.978;2023-05-07T13:41:08;5.95;;;3.92;;
26574;SDS011;67165;50.256;10.978;2023-05-07T13:43:34;5.93;;;3.63;;
26574;SDS011;67165;50.256;10.978;2023-05-07T13:46:00;5.82;;;3.78;;
26574;SDS011;67165;50.256;10.978;2023-05-07T13:48:26;4.13;;;3.72;;
26574;SDS011;67165;50.256;10.978;2023-05-07T13:50:53;6.05;;;4.43;;
26574;SDS011;67165;50.256;10.978;2023-05-07T13:53:19;6.65;;;5.38;;
26574;SDS011;67165;50.256;10.978;2023-05-07T13:55:44;6.10;;;5.28;;
26574;SDS011;67165;50.256;10.978;2023-05-07T13:58:10;6.35;;;5.25;;
26574;SDS011;67165;50.256;10.978;2023-05-07T14:00:36;8.40;;;5.30;;
26574;SDS011;67165;50.256;10.978;2023-05-07T14:03:02;6.72;;;5.57;;
26574;SDS011;67165;50.256;10.978;2023-05-07T14:05:29;6.35;;;5.00;;
26574;SDS011;67165;50.256;10.978;2023-05-07T14:07:56;7.63;;;5.63;;
26574;SDS011;67165;50.256;10.978;2023-05-07T14:10:23;5.90;;;5.30;;
26574;SDS011;67165;50.256;10.978;2023-05-07T14:12:48;6.32;;;5.28;;
26574;SDS011;67165;50.256;10.978;2023-05-07T14:15:14;8.55;;;5.63;;
26574;SDS011;67165;50.256;10.978;2023-05-07T14:17:41;7.07;;;5.32;;
26574;SDS011;67165;50.256;10.978;2023-05-07T14:20:07;7.07;;;5.82;;
26574;SDS011;67165;50.256;10.978;2023-05-07T14:22:33;6.82;;;5.88;;
26574;SDS011;67165;50.256;10.978;2023-05-07T14:24:59;7.75;;;5.72;;
26574;SDS011;67165;50.256;10.978;2023-05-07T14:27:24;8.32;;;5.35;;
26574;SDS011;67165;50.256;10.978;2023-05-07T14:29:50;6.68;;;5.43;;
26574;SDS011;67165;50.256;10.978;2023-05-07T14:32:18;8.50;;;5.25;;
26574;SDS011;67165;50.256;10.978;2023-05-07T14:34:45;7.32;;;5.28;;